createdAt,value
2023-01-17T00:01:35.054Z,64.78
2023-01-17T00:04:53.457Z,64.97
2023-01-17T00:07:54.916Z,64.83
2023-01-17T00:10:25.612Z,64.84
2023-01-17T00:13:26.894Z,65.21
2023-01-17T00:16:30.498Z,65.50
2023-01-17T00:19:58.137Z,64.96
2023-01-17T00:23:04.745Z,64.98
2023-01-17T00:26:19.725Z,64.90
2023-01-17T00:29:21.481Z,64.26
2023-01-17T00:32:26.253Z,64.47
2023-01-17T00:35:45.604Z,64.89
2023-01-17T00:38:35.541Z,64.75
2023-01-17T00:41:28.134Z,64.65
2023-01-17T00:44:37.231Z,64.75
2023-01-17T00:48:09.888Z,65.16
2023-01-17T00:51:41.320Z,65.46
2023-01-17T00:54:53.602Z,65.10
2023-01-17T00:58:52.584Z,64.82
2023-01-17T01:02:33.888Z,64.85
2023-01-17T01:06:44.745Z,64.32
2023-01-17T01:09:46.510Z,64.16
2023-01-17T01:12:41.245Z,64.72
2023-01-17T01:15:33.763Z,64.95
2023-01-17T01:18:29.771Z,64.85
2023-01-17T01:21:56.319Z,64.76
2023-01-17T01:25:08.721Z,64.81
2023-01-17T01:28:02.085Z,64.74
2023-01-17T01:30:55.253Z,64.28
2023-01-17T01:33:26.279Z,63.61
2023-01-17T01:36:00.297Z,63.79
2023-01-17T01:38:36.417Z,63.96
2023-01-17T01:41:18.760Z,64.09
2023-01-17T01:43:58.222Z,64.23
2023-01-17T01:46:40.040Z,64.51
2023-01-17T01:49:19.727Z,64.99
2023-01-17T01:52:22.617Z,64.80
2023-01-17T01:55:08.221Z,64.72
2023-01-17T01:58:12.513Z,65.12
2023-01-17T02:00:50.025Z,64.83
2023-01-17T02:03:49.173Z,65.27
2023-01-17T02:07:38.582Z,64.99
2023-01-17T02:10:31.638Z,64.29
2023-01-17T02:13:12.609Z,64.66
2023-01-17T02:16:09.324Z,64.95
2023-01-17T02:19:12.261Z,64.26
2023-01-17T02:22:19.111Z,64.04
2023-01-17T02:25:13.768Z,64.61
2023-01-17T02:28:08.827Z,65.08
2023-01-17T02:30:52.305Z,64.87
2023-01-17T02:33:45.735Z,65.22
2023-01-17T02:36:51.260Z,65.76
2023-01-17T02:39:51.547Z,65.43
2023-01-17T02:43:00.826Z,65.54
2023-01-17T02:45:46.229Z,65.17
2023-01-17T02:48:46.969Z,64.94
2023-01-17T02:52:18.899Z,64.52
2023-01-17T02:55:04.230Z,64.23
2023-01-17T02:58:23.035Z,63.62
2023-01-17T03:01:57.479Z,63.27
2023-01-17T03:04:51.640Z,62.75
2023-01-17T03:07:48.344Z,62.36
2023-01-17T03:10:22.951Z,62.39
2023-01-17T03:13:12.275Z,61.96
2023-01-17T03:15:51.077Z,62.32
2023-01-17T03:18:33.196Z,62.75
2023-01-17T03:21:18.573Z,62.49
2023-01-17T03:23:58.317Z,62.57
2023-01-17T03:26:31.832Z,63.06
2023-01-17T03:29:18.016Z,62.93
2023-01-17T03:31:58.890Z,63.00
2023-01-17T03:34:43.541Z,63.62
2023-01-17T03:37:36.185Z,63.76
2023-01-17T03:40:15.521Z,63.67
2023-01-17T03:43:25.998Z,64.36
2023-01-17T03:46:41.167Z,64.17
2023-01-17T03:49:48.346Z,64.33
2023-01-17T03:52:23.482Z,64.07
2023-01-17T03:55:08.355Z,63.97
2023-01-17T03:58:17.203Z,64.01
2023-01-17T04:01:16.380Z,63.32
2023-01-17T04:03:50.860Z,62.81
2023-01-17T04:06:31.049Z,63.19
2023-01-17T04:09:34.685Z,62.99
2023-01-17T04:12:32.209Z,63.57
2023-01-17T04:15:18.404Z,62.75
2023-01-17T04:18:05.634Z,62.22
2023-01-17T04:21:07.912Z,61.82
2023-01-17T04:24:28.700Z,61.58
2023-01-17T04:27:31.839Z,61.42
2023-01-17T04:30:52.290Z,60.93
2023-01-17T04:33:46.371Z,60.89
2023-01-17T04:36:47.429Z,60.71
2023-01-17T04:39:41.501Z,60.62
2023-01-17T04:43:16.025Z,60.58
2023-01-17T04:46:29.013Z,60.33
2023-01-17T04:49:09.202Z,60.01
2023-01-17T04:52:05.433Z,60.12
2023-01-17T04:54:49.904Z,60.36
2023-01-17T04:57:56.876Z,60.40
2023-01-17T05:01:10.391Z,60.53
2023-01-17T05:04:22.279Z,60.58
2023-01-17T05:06:55.795Z,60.60
2023-01-17T05:09:48.137Z,60.63
2023-01-17T05:12:42.319Z,60.96
2023-01-17T05:15:28.899Z,60.68
2023-01-17T05:18:30.235Z,60.67
2023-01-17T05:21:21.323Z,60.98
2023-01-17T05:24:14.748Z,60.75
2023-01-17T05:27:13.524Z,60.83
2023-01-17T05:29:44.613Z,60.58
2023-01-17T05:32:37.740Z,60.44
2023-01-17T05:35:35.106Z,60.60
2023-01-17T05:38:23.777Z,60.57
2023-01-17T05:41:24.499Z,60.48
2023-01-17T05:43:56.443Z,60.82
2023-01-17T05:46:33.177Z,61.29
2023-01-17T05:49:06.804Z,61.71
2023-01-17T05:51:48.537Z,62.04
2023-01-17T05:54:28.367Z,62.23
2023-01-17T05:57:04.956Z,62.54
2023-01-17T05:59:54.188Z,62.80
2023-01-17T06:02:30.999Z,63.33
2023-01-17T06:05:26.381Z,63.29
2023-01-17T06:08:21.787Z,62.84
2023-01-17T06:10:58.156Z,62.85
2023-01-17T06:13:48.313Z,62.38
2023-01-17T06:16:27.013Z,61.97
2023-01-17T06:19:22.884Z,61.36
2023-01-17T06:21:56.326Z,61.10
2023-01-17T06:24:42.987Z,61.06
2023-01-17T06:27:22.422Z,60.98
2023-01-17T06:30:10.169Z,60.66
2023-01-17T06:32:44.011Z,60.16
2023-01-17T06:35:52.088Z,59.70
2023-01-17T06:38:36.620Z,59.96
2023-01-17T06:41:27.266Z,60.04
2023-01-17T06:44:16.282Z,60.00
2023-01-17T06:46:45.234Z,59.84
2023-01-17T06:49:19.157Z,60.15
2023-01-17T06:52:07.838Z,60.30
2023-01-17T06:54:41.797Z,60.41
2023-01-17T06:57:15.470Z,60.43
2023-01-17T06:59:47.576Z,60.56
2023-01-17T07:02:29.234Z,60.64
2023-01-17T07:05:00.184Z,60.80
2023-01-17T07:07:55.994Z,60.75
2023-01-17T07:11:08.878Z,60.71
2023-01-17T07:13:45.755Z,60.94
2023-01-17T07:16:21.335Z,61.07
2023-01-17T07:19:21.934Z,61.09
2023-01-17T07:22:37.959Z,61.01
2023-01-17T07:25:49.008Z,60.86
2023-01-17T07:28:43.226Z,60.24
2023-01-17T07:31:18.025Z,60.07
2023-01-17T07:34:06.979Z,59.88
2023-01-17T07:36:47.065Z,59.90
2023-01-17T07:39:28.415Z,60.03
2023-01-17T07:42:09.698Z,60.42
2023-01-17T07:44:48.516Z,60.24
2023-01-17T07:47:24.672Z,60.68
2023-01-17T07:50:04.028Z,60.13
2023-01-17T07:52:35.353Z,60.49
2023-01-17T07:55:23.147Z,60.54
2023-01-17T07:58:12.147Z,61.16
2023-01-17T08:01:29.808Z,61.25
2023-01-17T08:04:23.340Z,61.09
2023-01-17T08:07:45.752Z,61.27
2023-01-17T08:10:25.892Z,60.42
2023-01-17T08:13:06.202Z,60.13
2023-01-17T08:16:03.413Z,60.01
2023-01-17T08:19:00.091Z,60.13
2023-01-17T08:22:26.905Z,60.71
2023-01-17T08:25:55.938Z,60.41
2023-01-17T08:28:40.705Z,60.12
2023-01-17T08:31:17.619Z,60.04
2023-01-17T08:34:17.147Z,59.88
2023-01-17T08:37:58.780Z,58.95
2023-01-17T08:40:43.185Z,60.44
2023-01-17T08:44:27.810Z,65.65
2023-01-17T08:47:51.152Z,64.94
2023-01-17T08:51:26.613Z,62.78
2023-01-17T08:54:33.959Z,61.77
2023-01-17T08:57:58.300Z,60.69
2023-01-17T09:02:02.978Z,59.93
2023-01-17T09:04:35.175Z,60.36
2023-01-17T09:08:21.605Z,60.13
2023-01-17T09:12:03.008Z,60.15
2023-01-17T09:14:59.532Z,59.85
2023-01-17T09:18:08.152Z,59.60
2023-01-17T09:21:14.044Z,59.65
2023-01-17T09:23:54.369Z,59.90
2023-01-17T09:27:25.208Z,59.97
2023-01-17T09:29:56.657Z,60.22
2023-01-17T09:32:32.315Z,59.93
2023-01-17T09:35:13.936Z,59.84
2023-01-17T09:37:48.311Z,59.66
2023-01-17T09:40:46.693Z,59.59
2023-01-17T09:43:46.737Z,59.75
2023-01-17T09:46:24.043Z,59.87
2023-01-17T09:49:47.430Z,59.89
2023-01-17T09:52:44.260Z,59.60
2023-01-17T09:56:20.377Z,59.59
2023-01-17T10:00:03.594Z,58.59
2023-01-17T10:03:21.094Z,62.91
2023-01-17T10:07:03.583Z,65.14
2023-01-17T10:09:57.657Z,64.45
2023-01-17T10:13:53.874Z,64.26
2023-01-17T10:16:44.340Z,64.45
2023-01-17T10:20:26.678Z,64.70
2023-01-17T10:24:16.495Z,64.96
2023-01-17T10:27:44.470Z,65.26
2023-01-17T10:30:32.481Z,65.11
2023-01-17T10:33:10.798Z,65.30
2023-01-17T10:36:18.173Z,64.84
2023-01-17T10:39:55.712Z,65.17
2023-01-17T10:42:35.825Z,65.16
2023-01-17T10:45:21.049Z,65.13
2023-01-17T10:48:01.794Z,64.78
2023-01-17T10:50:59.743Z,64.67
2023-01-17T10:54:07.508Z,64.70
2023-01-17T10:57:07.248Z,64.64
2023-01-17T10:59:47.914Z,64.97
2023-01-17T11:02:45.917Z,64.68
2023-01-17T11:06:29.834Z,64.36
2023-01-17T11:09:11.934Z,64.04
2023-01-17T11:12:34.172Z,63.64
2023-01-17T11:15:33.444Z,63.58
2023-01-17T11:18:13.773Z,63.06
2023-01-17T11:20:44.874Z,62.81
2023-01-17T11:23:46.332Z,63.24
2023-01-17T11:26:47.637Z,63.05
2023-01-17T11:29:47.733Z,63.17
2023-01-17T11:33:20.687Z,63.14
2023-01-17T11:36:41.493Z,62.76
2023-01-17T11:39:52.433Z,62.40
2023-01-17T11:43:55.064Z,62.25
2023-01-17T11:47:14.839Z,62.51
2023-01-17T11:50:04.555Z,62.58
2023-01-17T11:53:06.518Z,62.26
2023-01-17T11:57:18.610Z,62.20
2023-01-17T12:00:21.307Z,62.05
2023-01-17T12:03:55.853Z,62.09
2023-01-17T12:07:24.692Z,61.67
2023-01-17T12:10:20.929Z,61.60
2023-01-17T12:14:21.621Z,61.46
2023-01-17T12:18:14.322Z,61.64
2023-01-17T12:22:10.457Z,61.53
2023-01-17T12:25:26.682Z,61.18
2023-01-17T12:29:05.731Z,61.18
2023-01-17T12:32:21.576Z,61.04
2023-01-17T12:35:36.305Z,61.28
2023-01-17T12:38:32.808Z,61.58
2023-01-17T12:42:31.035Z,61.54
2023-01-17T12:45:57.621Z,61.91
2023-01-17T12:49:55.069Z,61.51
2023-01-17T12:53:16.315Z,61.49
2023-01-17T12:56:50.552Z,61.64
2023-01-17T13:00:42.599Z,61.63
2023-01-17T13:04:03.350Z,61.51
2023-01-17T13:07:44.030Z,61.69
2023-01-17T13:11:27.801Z,61.72
2023-01-17T13:14:46.780Z,61.73
2023-01-17T13:18:44.424Z,61.72
2023-01-17T13:21:49.034Z,61.43
2023-01-17T13:25:05.432Z,61.80
2023-01-17T13:28:07.291Z,61.65
2023-01-17T13:31:48.400Z,61.61
2023-01-17T13:34:27.326Z,61.39
2023-01-17T13:38:00.499Z,61.77
2023-01-17T13:42:19.424Z,62.49
2023-01-17T13:45:29.637Z,62.99
2023-01-17T13:49:23.006Z,63.14
2023-01-17T13:52:33.165Z,62.88
2023-01-17T13:55:53.958Z,62.69
2023-01-17T13:59:03.786Z,62.64
2023-01-17T14:01:32.554Z,62.59
2023-01-17T14:05:08.802Z,62.53
2023-01-17T14:08:03.659Z,62.37
2023-01-17T14:10:45.238Z,62.23
2023-01-17T14:13:55.713Z,62.13
2023-01-17T14:16:57.063Z,62.01
2023-01-17T14:19:29.325Z,61.77
2023-01-17T14:23:08.690Z,61.54
2023-01-17T14:26:02.212Z,61.47
2023-01-17T14:28:46.859Z,61.33
2023-01-17T14:31:20.811Z,61.28
2023-01-17T14:34:24.331Z,61.16
2023-01-17T14:37:05.108Z,61.27
2023-01-17T14:39:50.007Z,61.36
2023-01-17T14:42:25.738Z,61.27
2023-01-17T14:45:12.540Z,61.20
2023-01-17T14:47:46.203Z,61.26
2023-01-17T14:51:10.796Z,61.65
2023-01-17T14:54:02.258Z,61.69
2023-01-17T14:56:36.531Z,61.81
2023-01-17T14:59:22.420Z,61.53
2023-01-17T15:02:07.672Z,61.67
2023-01-17T15:04:40.989Z,61.78
2023-01-17T15:07:20.620Z,61.54
2023-01-17T15:09:56.373Z,61.71
2023-01-17T15:12:46.690Z,61.60
2023-01-17T15:15:46.377Z,61.40
2023-01-17T15:18:14.992Z,61.87
2023-01-17T15:21:02.308Z,61.93
2023-01-17T15:23:41.205Z,62.04
2023-01-17T15:26:24.547Z,61.72
2023-01-17T15:29:21.490Z,61.72
2023-01-17T15:32:03.220Z,61.25
2023-01-17T15:34:59.708Z,61.05
2023-01-17T15:38:07.611Z,60.69
2023-01-17T15:40:46.739Z,61.09
2023-01-17T15:43:40.312Z,61.15
2023-01-17T15:46:29.060Z,61.47
2023-01-17T15:49:29.901Z,61.74
2023-01-17T15:52:18.557Z,61.43
2023-01-17T15:54:53.485Z,61.44
2023-01-17T15:57:45.312Z,61.33
2023-01-17T16:00:42.191Z,61.30
2023-01-17T16:03:30.304Z,61.20
2023-01-17T16:06:00.766Z,61.56
2023-01-17T16:09:16.635Z,61.72
2023-01-17T16:11:47.756Z,61.75
2023-01-17T16:14:40.535Z,61.56
2023-01-17T16:17:30.493Z,61.43
2023-01-17T16:20:17.098Z,61.12
2023-01-17T16:22:56.641Z,61.22
2023-01-17T16:25:33.102Z,61.21
2023-01-17T16:28:25.032Z,61.26
2023-01-17T16:31:38.234Z,61.16
2023-01-17T16:34:24.638Z,61.55
2023-01-17T16:37:16.720Z,61.34
2023-01-17T16:40:11.823Z,60.97
2023-01-17T16:42:54.027Z,61.08
2023-01-17T16:45:30.464Z,60.95
2023-01-17T16:48:17.666Z,60.80
2023-01-17T16:51:10.670Z,60.76
2023-01-17T16:53:49.972Z,60.34
2023-01-17T16:56:31.252Z,60.19
2023-01-17T16:59:24.117Z,60.20
2023-01-17T17:02:06.120Z,60.38
2023-01-17T17:04:46.955Z,60.48
2023-01-17T17:07:52.166Z,61.02
2023-01-17T17:10:35.955Z,61.34
2023-01-17T17:13:53.363Z,61.45
2023-01-17T17:16:30.883Z,61.19
2023-01-17T17:19:06.721Z,60.54
2023-01-17T17:21:58.448Z,60.72
2023-01-17T17:24:51.193Z,60.72
2023-01-17T17:27:27.910Z,60.97
2023-01-17T17:30:03.126Z,60.60
2023-01-17T17:32:49.887Z,60.47
2023-01-17T17:35:36.362Z,60.14
2023-01-17T17:38:12.076Z,60.37
2023-01-17T17:40:50.685Z,60.19
2023-01-17T17:43:26.548Z,60.11
2023-01-17T17:45:58.323Z,59.80
2023-01-17T17:48:31.995Z,59.74
2023-01-17T17:51:05.950Z,59.60
2023-01-17T17:53:37.132Z,59.54
2023-01-17T17:56:11.563Z,59.55
2023-01-17T17:58:46.379Z,58.37
2023-01-17T18:01:15.191Z,58.38
2023-01-17T18:03:46.530Z,59.02
2023-01-17T18:06:22.687Z,58.92
2023-01-17T18:08:58.106Z,61.85
2023-01-17T18:11:29.790Z,67.06
2023-01-17T18:14:00.931Z,68.37
2023-01-17T18:16:53.481Z,66.23
2023-01-17T18:19:27.344Z,64.76
2023-01-17T18:22:03.513Z,63.63
2023-01-17T18:24:36.425Z,62.74
2023-01-17T18:27:10.535Z,62.17
2023-01-17T18:29:56.628Z,61.57
2023-01-17T18:32:28.484Z,60.94
2023-01-17T18:34:59.306Z,60.54
2023-01-17T18:37:33.746Z,60.40
2023-01-17T18:40:26.974Z,59.85
2023-01-17T18:43:00.648Z,59.14
2023-01-17T18:45:28.905Z,57.70
2023-01-17T18:48:12.103Z,57.51
2023-01-17T18:51:15.835Z,62.20
2023-01-17T18:53:53.017Z,66.25
2023-01-17T18:56:30.891Z,65.60
2023-01-17T18:59:18.499Z,65.25
2023-01-17T19:01:53.568Z,64.62
2023-01-17T19:04:36.268Z,64.55
2023-01-17T19:07:08.427Z,64.23
2023-01-17T19:09:39.270Z,63.85
2023-01-17T19:12:29.867Z,63.39
2023-01-17T19:15:01.214Z,63.14
2023-01-17T19:17:32.838Z,62.18
2023-01-17T19:20:19.137Z,61.00
2023-01-17T19:22:48.065Z,60.86
2023-01-17T19:25:19.007Z,60.88
2023-01-17T19:27:53.451Z,60.65
2023-01-17T19:30:22.411Z,60.24
2023-01-17T19:33:04.199Z,60.03
2023-01-17T19:35:44.358Z,59.55
2023-01-17T19:38:25.944Z,57.78
2023-01-17T19:41:23.635Z,58.47
2023-01-17T19:44:02.263Z,58.82
2023-01-17T19:46:45.657Z,61.32
2023-01-17T19:49:32.141Z,67.23
2023-01-17T19:52:06.288Z,69.33
2023-01-17T19:54:52.978Z,67.03
2023-01-17T19:57:24.933Z,66.19
2023-01-17T19:59:54.436Z,64.82
2023-01-17T20:02:26.731Z,64.30
2023-01-17T20:05:16.036Z,64.18
2023-01-17T20:07:57.254Z,64.03
2023-01-17T20:10:32.096Z,63.60
2023-01-17T20:13:14.283Z,63.14
2023-01-17T20:15:42.866Z,62.65
2023-01-17T20:18:14.727Z,62.12
2023-01-17T20:20:57.395Z,61.39
2023-01-17T20:23:48.062Z,60.95
2023-01-17T20:26:44.095Z,60.98
2023-01-17T20:29:27.597Z,60.71
2023-01-17T20:32:44.820Z,60.15
2023-01-17T20:35:41.259Z,60.02
2023-01-17T20:38:27.755Z,58.58
2023-01-17T20:41:12.080Z,57.64
2023-01-17T20:44:34.551Z,58.06
2023-01-17T20:48:03.842Z,60.77
2023-01-17T20:50:49.356Z,62.19
2023-01-17T20:53:44.138Z,65.99
2023-01-17T20:57:04.916Z,70.08
2023-01-17T20:59:48.791Z,67.67
2023-01-17T21:02:28.217Z,65.79
2023-01-17T21:05:04.075Z,64.26
2023-01-17T21:07:43.203Z,63.69
2023-01-17T21:10:22.694Z,63.35
2023-01-17T21:13:08.113Z,62.58
2023-01-17T21:16:05.517Z,62.01
2023-01-17T21:19:32.933Z,62.08
2023-01-17T21:22:06.872Z,62.56
2023-01-17T21:25:23.038Z,63.20
2023-01-17T21:28:03.202Z,63.66
2023-01-17T21:30:33.230Z,64.13
2023-01-17T21:33:08.861Z,64.04
2023-01-17T21:35:53.415Z,63.66
2023-01-17T21:38:24.972Z,63.58
2023-01-17T21:40:59.831Z,63.38
2023-01-17T21:43:36.328Z,63.41
2023-01-17T21:46:07.536Z,62.31
2023-01-17T21:48:37.767Z,62.16
2023-01-17T21:51:14.824Z,62.36
2023-01-17T21:54:00.285Z,62.51
2023-01-17T21:56:47.503Z,62.48
2023-01-17T21:59:20.797Z,62.90
2023-01-17T22:02:10.712Z,62.83
2023-01-17T22:04:44.190Z,62.74
2023-01-17T22:07:18.820Z,62.19
2023-01-17T22:10:05.143Z,62.46
2023-01-17T22:12:36.347Z,62.69
2023-01-17T22:15:08.944Z,62.72
2023-01-17T22:17:47.534Z,62.39
2023-01-17T22:20:20.974Z,62.37
2023-01-17T22:22:55.678Z,62.53
2023-01-17T22:25:35.768Z,62.34
2023-01-17T22:28:14.349Z,62.28
2023-01-17T22:30:46.065Z,62.32
2023-01-17T22:33:22.903Z,62.11
2023-01-17T22:36:05.893Z,62.02
2023-01-17T22:38:40.421Z,61.97
2023-01-17T22:41:20.151Z,61.59
2023-01-17T22:43:58.834Z,60.83
2023-01-17T22:46:32.841Z,60.69
2023-01-17T22:49:08.597Z,60.82
2023-01-17T22:51:42.631Z,60.65
2023-01-17T22:54:15.010Z,60.43
2023-01-17T22:56:50.963Z,60.43
2023-01-17T22:59:25.172Z,59.81
2023-01-17T23:01:56.760Z,59.81
2023-01-17T23:04:28.399Z,59.79
2023-01-17T23:06:56.875Z,59.83
2023-01-17T23:09:33.200Z,59.90
2023-01-17T23:12:13.178Z,59.78
2023-01-17T23:15:00.382Z,59.65
2023-01-17T23:17:55.395Z,59.69
2023-01-17T23:20:57.770Z,59.80
2023-01-17T23:23:34.754Z,60.15
2023-01-17T23:26:17.463Z,59.69
2023-01-17T23:28:49.328Z,59.63
2023-01-17T23:31:35.913Z,58.76
2023-01-17T23:34:21.508Z,58.90
2023-01-17T23:36:52.855Z,59.86
2023-01-17T23:39:24.201Z,63.19
2023-01-17T23:42:11.576Z,69.31
2023-01-17T23:44:48.505Z,67.08
2023-01-17T23:47:55.280Z,63.96
2023-01-17T23:50:53.353Z,60.12
2023-01-17T23:53:27.468Z,60.05
2023-01-17T23:56:45.412Z,61.52
2023-01-17T23:59:28.370Z,61.48
